createdAt,value
2019-03-20T00:00:43.043Z,34.67
2019-03-20T00:03:14.268Z,35.30
2019-03-20T00:05:45.388Z,33.08
2019-03-20T00:08:16.675Z,35.20
2019-03-20T00:10:47.875Z,33.42
2019-03-20T00:13:19.212Z,33.05
2019-03-20T00:15:50.626Z,34.30
2019-03-20T00:18:21.871Z,35.83
2019-03-20T00:20:53.179Z,38.20
2019-03-20T00:23:24.452Z,39.50
2019-03-20T00:25:55.714Z,39.08
2019-03-20T00:28:26.905Z,36.90
2019-03-20T00:30:58.184Z,39.60
2019-03-20T00:33:29.345Z,34.73
2019-03-20T00:36:00.637Z,40.25
2019-03-20T00:38:32.043Z,37.08
2019-03-20T00:41:03.279Z,39.85
2019-03-20T00:43:34.468Z,43.02
2019-03-20T00:46:05.737Z,42.58
2019-03-20T00:48:36.994Z,42.40
2019-03-20T00:51:08.201Z,40.50
2019-03-20T00:53:39.466Z,40.12
2019-03-20T00:56:10.685Z,45.55
2019-03-20T00:58:41.984Z,46.85
2019-03-20T01:01:13.271Z,40.50
2019-03-20T01:03:44.538Z,43.17
2019-03-20T01:06:15.887Z,43.78
2019-03-20T01:08:47.311Z,42.95
2019-03-20T01:11:18.597Z,42.45
2019-03-20T01:13:50.000Z,43.50
2019-03-20T01:16:21.233Z,43.83
2019-03-20T01:18:52.472Z,42.58
2019-03-20T01:21:23.823Z,43.92
2019-03-20T01:23:54.955Z,42.78
2019-03-20T01:26:26.064Z,38.90
2019-03-20T01:28:57.340Z,45.90
2019-03-20T01:31:28.693Z,49.05
2019-03-20T01:34:00.036Z,44.95
2019-03-20T01:36:31.336Z,53.52
2019-03-20T01:39:02.673Z,55.17
2019-03-20T01:41:38.139Z,51.77
2019-03-20T01:44:09.815Z,51.27
2019-03-20T01:46:42.243Z,53.70
2019-03-20T01:49:13.543Z,50.50
2019-03-20T01:51:44.776Z,52.23
2019-03-20T01:54:16.088Z,56.67
2019-03-20T01:56:47.378Z,57.43
2019-03-20T01:59:18.679Z,57.58
2019-03-20T02:01:49.926Z,51.13
2019-03-20T02:04:21.300Z,42.73
2019-03-20T02:06:52.563Z,43.15
2019-03-20T02:09:24.952Z,46.33
2019-03-20T02:11:56.208Z,50.63
2019-03-20T02:14:27.532Z,54.00
2019-03-20T02:16:58.733Z,46.20
2019-03-20T02:19:29.911Z,45.27
2019-03-20T02:22:01.171Z,45.43
2019-03-20T02:24:32.497Z,46.57
2019-03-20T02:27:03.759Z,48.73
2019-03-20T02:29:35.027Z,46.43
2019-03-20T02:32:06.390Z,49.47
2019-03-20T02:34:37.635Z,42.80
2019-03-20T02:37:08.848Z,47.87
2019-03-20T02:39:40.092Z,53.70
2019-03-20T02:42:11.434Z,52.20
2019-03-20T02:44:42.647Z,57.43
2019-03-20T02:47:14.076Z,60.57
2019-03-20T02:49:45.243Z,54.13
2019-03-20T02:52:16.520Z,53.30
2019-03-20T02:54:47.806Z,51.73
2019-03-20T02:57:19.022Z,52.70
2019-03-20T02:59:50.488Z,51.07
2019-03-20T03:02:22.757Z,49.77
2019-03-20T03:04:54.084Z,47.80
2019-03-20T03:07:26.462Z,49.53
2019-03-20T03:09:57.807Z,53.00
2019-03-20T03:12:28.959Z,64.37
2019-03-20T03:15:00.540Z,67.33
2019-03-20T03:17:32.841Z,66.67
2019-03-20T03:20:22.308Z,65.27
2019-03-20T03:22:53.662Z,67.47
2019-03-20T03:25:26.038Z,64.00
2019-03-20T03:27:57.236Z,65.43
2019-03-20T03:30:28.521Z,60.33
2019-03-20T03:32:59.793Z,57.50
2019-03-20T03:35:31.192Z,53.57
2019-03-20T03:38:02.510Z,56.00
2019-03-20T03:40:34.962Z,53.77
2019-03-20T03:43:06.239Z,51.53
2019-03-20T03:45:37.448Z,52.57
2019-03-20T03:48:08.783Z,50.13
2019-03-20T03:50:40.041Z,50.33
2019-03-20T03:53:11.338Z,49.97
2019-03-20T03:55:42.661Z,47.10
2019-03-20T03:58:13.918Z,47.33
2019-03-20T04:00:45.320Z,47.07
2019-03-20T04:03:16.608Z,48.47
2019-03-20T04:05:47.887Z,52.13
2019-03-20T04:08:19.154Z,48.17
2019-03-20T04:10:50.288Z,47.77
2019-03-20T04:13:21.632Z,48.23
2019-03-20T04:15:53.042Z,48.20
2019-03-20T04:18:24.299Z,42.47
2019-03-20T04:20:55.593Z,43.00
2019-03-20T04:23:26.997Z,46.27
2019-03-20T04:25:58.292Z,47.57
2019-03-20T04:28:29.514Z,48.63
2019-03-20T04:31:00.738Z,55.27
2019-03-20T04:33:32.041Z,52.57
2019-03-20T04:36:03.300Z,56.87
2019-03-20T04:38:34.577Z,57.93
2019-03-20T04:41:05.867Z,55.70
2019-03-20T04:43:37.003Z,57.30
2019-03-20T04:46:09.425Z,60.17
2019-03-20T04:48:40.725Z,66.93
2019-03-20T04:51:11.996Z,69.90
2019-03-20T04:53:43.303Z,74.40
2019-03-20T04:56:17.340Z,74.93
2019-03-20T04:58:48.614Z,76.97
2019-03-20T05:01:19.858Z,66.17
2019-03-20T05:03:51.116Z,68.15
2019-03-20T05:06:22.391Z,62.88
2019-03-20T05:08:54.809Z,54.48
2019-03-20T05:11:26.233Z,49.85
2019-03-20T05:13:57.438Z,50.05
2019-03-20T05:16:28.631Z,51.83
2019-03-20T05:18:59.846Z,49.53
2019-03-20T05:21:31.175Z,46.25
2019-03-20T05:24:02.481Z,43.00
2019-03-20T05:26:33.741Z,41.35
2019-03-20T05:29:05.154Z,65.87
2019-03-20T05:31:36.519Z,67.95
2019-03-20T05:34:07.716Z,54.05
2019-03-20T05:36:40.015Z,66.40
2019-03-20T05:39:11.339Z,44.00
2019-03-20T05:41:42.556Z,44.35
2019-03-20T05:44:13.877Z,44.23
2019-03-20T05:46:45.103Z,78.28
2019-03-20T05:49:16.507Z,42.38
2019-03-20T05:51:47.780Z,49.42
2019-03-20T05:54:20.153Z,126.70
2019-03-20T05:56:51.437Z,65.40
2019-03-20T05:59:22.710Z,42.40
2019-03-20T06:01:54.005Z,43.30
2019-03-20T06:04:25.308Z,80.07
2019-03-20T06:06:56.640Z,37.88
2019-03-20T06:09:27.918Z,33.45
2019-03-20T06:11:59.207Z,41.30
2019-03-20T06:14:30.497Z,38.20
2019-03-20T06:17:01.771Z,35.30
2019-03-20T06:19:33.231Z,37.75
2019-03-20T06:22:04.505Z,35.15
2019-03-20T06:24:35.856Z,44.58
2019-03-20T06:27:07.146Z,40.78
2019-03-20T06:29:38.349Z,38.15
2019-03-20T06:32:10.247Z,37.08
2019-03-20T06:34:41.547Z,36.83
2019-03-20T06:37:12.931Z,36.58
2019-03-20T06:39:44.159Z,37.28
2019-03-20T06:42:15.494Z,35.40
2019-03-20T06:44:46.854Z,37.05
2019-03-20T06:47:18.201Z,36.23
2019-03-20T06:49:49.513Z,36.80
2019-03-20T06:52:20.854Z,113.05
2019-03-20T06:54:52.085Z,71.55
2019-03-20T06:57:23.500Z,58.35
2019-03-20T07:00:17.431Z,48.28
2019-03-20T07:02:49.262Z,42.25
2019-03-20T07:05:57.131Z,38.15
2019-03-20T07:08:31.653Z,36.90
2019-03-20T07:11:08.402Z,37.75
2019-03-20T07:13:39.780Z,37.78
2019-03-20T07:16:10.994Z,36.70
2019-03-20T07:18:44.592Z,36.30
2019-03-20T07:21:18.486Z,42.55
2019-03-20T07:23:48.929Z,37.33
2019-03-20T07:26:20.131Z,37.25
2019-03-20T07:28:51.461Z,39.58
2019-03-20T07:31:22.651Z,39.42
2019-03-20T07:33:54.197Z,39.48
2019-03-20T07:36:25.522Z,39.25
2019-03-20T07:38:57.873Z,53.58
2019-03-20T07:41:29.182Z,42.33
2019-03-20T07:44:00.445Z,44.38
2019-03-20T07:46:31.951Z,41.88
2019-03-20T07:49:03.219Z,36.75
2019-03-20T07:51:34.464Z,34.88
2019-03-20T07:54:05.797Z,39.08
2019-03-20T07:56:37.157Z,39.63
2019-03-20T07:59:08.393Z,40.52
2019-03-20T08:01:39.732Z,39.55
2019-03-20T08:04:11.327Z,38.60
2019-03-20T08:06:42.469Z,37.55
2019-03-20T08:09:13.718Z,39.83
2019-03-20T08:11:44.933Z,39.75
2019-03-20T08:14:17.133Z,36.98
2019-03-20T08:16:48.497Z,39.00
2019-03-20T08:19:19.642Z,38.25
2019-03-20T08:21:51.053Z,39.73
2019-03-20T08:24:22.412Z,39.60
2019-03-20T08:26:53.667Z,39.67
2019-03-20T08:29:24.898Z,43.42
2019-03-20T08:31:56.175Z,73.22
2019-03-20T08:34:27.450Z,41.42
2019-03-20T08:36:59.299Z,39.30
2019-03-20T08:39:30.692Z,40.03
2019-03-20T08:42:02.509Z,39.53
2019-03-20T08:44:33.658Z,40.00
2019-03-20T08:47:05.016Z,40.10
2019-03-20T08:49:36.242Z,41.13
2019-03-20T08:52:07.511Z,40.48
2019-03-20T08:54:38.921Z,38.75
2019-03-20T08:57:10.182Z,39.13
2019-03-20T08:59:41.630Z,38.13
2019-03-20T09:02:12.980Z,38.05
2019-03-20T09:04:44.332Z,40.35
2019-03-20T09:07:15.495Z,42.78
2019-03-20T09:09:46.988Z,37.98
2019-03-20T09:12:18.709Z,37.40
2019-03-20T09:14:50.004Z,38.63
2019-03-20T09:17:21.408Z,38.38
2019-03-20T09:48:46.817Z,42.70
2019-03-20T09:51:19.379Z,40.40
2019-03-20T09:53:52.269Z,43.50
2019-03-20T09:56:23.860Z,41.28
2019-03-20T09:58:55.280Z,41.37
2019-03-20T10:01:26.523Z,37.83
2019-03-20T10:04:01.468Z,44.23
2019-03-20T10:06:32.675Z,45.73
2019-03-20T10:09:05.102Z,42.75
2019-03-20T10:11:36.537Z,37.85
2019-03-20T10:14:07.878Z,36.40
2019-03-20T10:16:39.056Z,40.73
2019-03-20T10:19:10.361Z,35.40
2019-03-20T10:21:41.633Z,34.83
2019-03-20T10:24:12.899Z,36.80
2019-03-20T10:26:44.202Z,33.95
2019-03-20T10:29:15.499Z,36.20
2019-03-20T10:31:46.991Z,37.42
2019-03-20T10:34:20.612Z,36.63
2019-03-20T10:36:51.926Z,36.88
2019-03-20T10:39:23.242Z,39.78
2019-03-20T10:41:54.584Z,40.43
2019-03-20T10:44:27.434Z,38.95
2019-03-20T10:47:00.161Z,37.10
2019-03-20T10:49:31.374Z,39.00
2019-03-20T10:52:02.710Z,37.45
2019-03-20T10:54:33.929Z,36.03
2019-03-20T10:57:05.206Z,35.58
2019-03-20T10:59:36.587Z,36.40
2019-03-20T11:02:07.722Z,36.25
2019-03-20T11:04:38.988Z,34.85
2019-03-20T11:07:10.140Z,35.68
2019-03-20T11:09:41.486Z,32.48
2019-03-20T11:12:14.236Z,32.73
2019-03-20T11:14:45.887Z,29.45
2019-03-20T11:17:17.171Z,30.90
2019-03-20T11:19:48.433Z,35.45
2019-03-20T11:22:20.159Z,26.50
2019-03-20T11:24:51.421Z,27.40
2019-03-20T11:27:22.711Z,26.48
2019-03-20T11:29:53.910Z,23.47
2019-03-20T11:32:26.899Z,24.55
2019-03-20T11:34:58.268Z,26.70
2019-03-20T11:37:29.513Z,24.20
2019-03-20T11:40:00.821Z,25.05
2019-03-20T11:42:32.333Z,29.65
2019-03-20T11:45:04.474Z,23.60
